Pagrindinis puslapis
METAR-TAF:

METAR-TAF

Oro uostai :

Magadanas, Rusija

platuma: 59-33N, ilguma: 150-47E, Aukštis: 118 m

Dabartinis oras

Ataskaita buvo paskelbta 1 valandą ir 8 minutes, ne 13:00 UTC
Vėjas 2 kt iš Rytų/Pietryčių
Temperatūra -29°C
Drėgmė 83%
Slėgis 1008 hPa
Matomumas 10 km arba daugiau

METAR: UHMM 091300Z 11001MPS 9999 NSC M29/M31 Q1008 RMK QFE741

Laikas: 01:08 (14:08 UTC)

Prognozė

Ataskaita buvo paskelbta 3 valandos ir 17 minutes, ne 10:51 UTC
Prognozė galioja nuo 09 metu 12 UTC su 10 metu 18 UTC
Vėjas 6 kt iš Rytų
Matomumas 10 km arba daugiau
Laikinai
nuo 09 metu 16 UTC su 09 metu 24 UTC
Matomumas: 3100 m
Išsisklaidę debesys ne aukštis 1100 ft
rūkana
Tapsmas
nuo 09 metu 23 UTC su 09 metu 24 UTC
Vėjas 6 kt iš Šiaurės su gūsio iki 16 kt

TAF: UHMM 091051Z 0912/1018 10003MPS 9999 NSC TEMPO 0916/0924 3100 BR SCT011 BECMG 0923/0924 36003G08MPS

Orai ataskaitas ir orų prognozės (METAR, TAF).

turimą stotys yra geltonos ir raudonos taškus žemėlapyje.

Perkelti pele per norėdami pamatyti stoties vardą.

Tada spustelėkite, norėdami matyti oro stebėjimo ir prognozės.

Norėdami pakeisti žemėlapį: spustelėkite ant žalios mygtukų su juodo kryžiaus žemyn,; žalią mygtuką su brūkšneliu, jei norite nutolinti; arba žalių rodyklių gretimoms žemėlapius.


METAR-TAF: